Terminal Aerodrome Forecast
Issued by NWS Buffalo, NY

Home | Current Version | Previous Version | Text Only | Print | Product List | Glossary On
Versions: 1 2 3 4 5 6 7 8 9 10 11 12 13 14 15 16 17 18 19 20 21 22 23 24 25 26 27 28
000
FTUS41 KBUF 062327
TAFART
TAF
KART 062327Z 0700/0724 02005KT P6SM VCSH OVC050
     FM070200 06004KT P6SM OVC045
     FM070400 11004KT 6SM -SHRA OVC035
     FM070600 15004KT 6SM -SHRA OVC030
     FM070800 17004KT P6SM BKN035
     FM071100 17009KT P6SM BKN200=

USA.gov is the U.S. government's official web portal to all federal, state and local government web resources and services.